Time;durP1;ratioP1;P1;durP2;ratioP2;P2;SDS_P1;SDS_P2;PMS_P1;PMS_P2;Temp;Humidity;BMP_temperature;BMP_pressure;BME280_temperature;BME280_humidity;BME280_pressure;Samples;Min_cycle;Max_cycle;Signal;HPM_P1;HPM_P2
2023/03/25 00:02:10;;;;;;;2.33;0.45;;;8.90;99.90;;;;;;7278412;32;20104;-55
2023/03/25 00:06:13;;;;;;;3.65;0.80;;;8.90;99.90;;;;;;7277244;32;20220;-56
2023/03/25 00:10:15;;;;;;;3.42;0.73;;;8.80;99.90;;;;;;7281087;32;20275;-55
2023/03/25 00:14:16;;;;;;;1.90;0.62;;;8.90;99.90;;;;;;7273758;32;20731;-55
2023/03/25 00:18:20;;;;;;;3.70;0.70;;;9.00;99.90;;;;;;7278225;32;20104;-55
2023/03/25 00:22:22;;;;;;;5.50;0.60;;;9.00;99.90;;;;;;7282521;32;20600;-55
2023/03/25 00:26:23;;;;;;;2.65;0.40;;;9.00;99.90;;;;;;7277276;32;20824;-55
2023/03/25 00:30:25;;;;;;;2.33;0.50;;;9.10;99.90;;;;;;7277911;32;20296;-55
2023/03/25 00:34:27;;;;;;;3.72;0.80;;;9.00;99.90;;;;;;7283629;32;20304;-54
2023/03/25 00:38:34;;;;;;;3.75;0.60;;;9.10;99.90;;;;;;7280158;32;20118;-55
2023/03/25 00:42:36;;;;;;;3.60;0.70;;;9.10;99.90;;;;;;7277031;32;20235;-55
2023/03/25 00:46:37;;;;;;;6.68;0.68;;;9.10;99.90;;;;;;7274425;32;20179;-55
2023/03/25 00:50:40;;;;;;;4.10;0.80;;;9.20;99.90;;;;;;7272116;32;20542;-55
2023/03/25 00:54:42;;;;;;;3.30;0.75;;;9.10;99.90;;;;;;7279775;32;20133;-56
2023/03/25 00:58:44;;;;;;;3.25;1.25;;;9.10;99.90;;;;;;7281789;32;20151;-55
2023/03/25 01:02:48;;;;;;;3.85;0.60;;;9.10;99.90;;;;;;7282119;32;20213;-54
2023/03/25 01:06:50;;;;;;;3.65;0.77;;;9.10;99.90;;;;;;7283791;32;20476;-55
2023/03/25 01:10:53;;;;;;;5.22;1.00;;;9.10;99.90;;;;;;7284812;32;20122;-55
2023/03/25 01:14:55;;;;;;;6.95;1.10;;;9.10;99.90;;;;;;7273314;32;20103;-55
2023/03/25 01:18:57;;;;;;;5.15;0.70;;;9.10;99.90;;;;;;7283906;32;20108;-55
2023/03/25 01:22:59;;;;;;;2.65;0.60;;;9.10;99.90;;;;;;7292565;32;20100;-55
2023/03/25 01:27:01;;;;;;;3.03;0.57;;;9.10;99.90;;;;;;7287155;32;20532;-55
2023/03/25 01:31:05;;;;;;;2.85;0.62;;;9.10;99.90;;;;;;7287887;32;20182;-55
2023/03/25 01:35:09;;;;;;;2.83;0.65;;;9.10;99.90;;;;;;7287807;32;20439;-55
2023/03/25 01:39:15;;;;;;;4.43;0.93;;;9.10;99.90;;;;;;7279263;32;20104;-55
2023/03/25 01:43:17;;;;;;;5.35;0.80;;;9.20;99.90;;;;;;7294506;32;20171;-55
2023/03/25 01:47:18;;;;;;;4.82;1.12;;;9.20;99.90;;;;;;7287686;32;20215;-55
2023/03/25 01:51:26;;;;;;;6.22;1.17;;;9.30;99.90;;;;;;7281114;32;20173;-55
2023/03/25 01:55:28;;;;;;;;;;;9.30;99.90;;;;;;7278359;32;20663;-55
2023/03/25 01:59:30;;;;;;;5.70;0.75;;;9.30;99.90;;;;;;7284610;32;20378;-55
2023/03/25 02:03:36;;;;;;;4.18;0.55;;;9.30;99.90;;;;;;7279722;32;23259;-55
2023/03/25 02:07:41;;;;;;;2.12;0.57;;;9.30;99.90;;;;;;7286541;32;20714;-55
2023/03/25 02:11:43;;;;;;;6.05;0.73;;;9.20;99.90;;;;;;7281113;32;20122;-56
2023/03/25 02:15:59;;;;;;;3.00;0.50;;;9.20;99.90;;;;;;7283863;32;20172;-55
2023/03/25 02:20:30;;;;;;;3.33;0.68;;;9.20;99.90;;;;;;7279413;32;20108;-55
2023/03/25 02:24:42;;;;;;;2.97;0.60;;;9.20;99.90;;;;;;7274911;32;20109;-54
2023/03/25 02:28:55;;;;;;;4.15;0.50;;;9.10;99.90;;;;;;7277867;32;20124;-54
2023/03/25 02:33:10;;;;;;;3.50;0.60;;;9.10;99.90;;;;;;7282155;32;20195;-54
2023/03/25 02:37:25;;;;;;;2.35;0.65;;;9.10;99.90;;;;;;7275323;32;20124;-54
2023/03/25 02:41:57;;;;;;;1.92;0.50;;;9.10;99.90;;;;;;7275684;32;20156;-54
2023/03/25 02:46:06;;;;;;;3.67;0.60;;;9.10;99.90;;;;;;7279156;32;20186;-54
2023/03/25 02:50:22;;;;;;;2.10;0.35;;;9.00;99.90;;;;;;7278955;32;20212;-54
2023/03/25 02:54:27;;;;;;;2.83;0.60;;;9.00;99.90;;;;;;7277310;32;20130;-54
2023/03/25 02:58:30;;;;;;;2.85;0.57;;;9.00;99.90;;;;;;7286488;32;20458;-54
2023/03/25 03:02:32;;;;;;;2.62;0.50;;;9.10;99.90;;;;;;7280367;32;20142;-54
2023/03/25 03:06:40;;;;;;;5.15;1.00;;;9.00;99.90;;;;;;7283983;32;20107;-53
2023/03/25 03:10:52;;;;;;;3.17;0.52;;;9.00;99.90;;;;;;7281385;32;20100;-53
2023/03/25 03:15:13;;;;;;;3.12;0.60;;;9.00;99.90;;;;;;7280053;32;20099;-54
2023/03/25 03:19:24;;;;;;;2.58;0.75;;;9.00;99.90;;;;;;7271953;32;20104;-54
2023/03/25 03:23:35;;;;;;;3.78;0.70;;;9.00;99.90;;;;;;7267565;32;20228;-53
2023/03/25 03:27:47;;;;;;;1.67;0.55;;;9.00;99.90;;;;;;7276134;32;20293;-54
2023/03/25 03:32:03;;;;;;;2.92;0.90;;;8.90;99.90;;;;;;7280419;32;20108;-54
2023/03/25 03:36:15;;;;;;;3.95;0.60;;;8.90;99.90;;;;;;7283175;32;20126;-55
2023/03/25 03:40:20;;;;;;;4.28;0.85;;;8.90;99.90;;;;;;7279137;32;20719;-54
2023/03/25 03:44:30;;;;;;;6.40;0.88;;;8.80;99.90;;;;;;7284412;32;20253;-54
2023/03/25 03:48:46;;;;;;;6.22;1.05;;;8.80;99.90;;;;;;7283193;32;20122;-54
2023/03/25 03:53:15;;;;;;;7.53;0.90;;;8.70;99.90;;;;;;7277186;32;20573;-54
2023/03/25 03:57:36;;;;;;;6.10;0.82;;;8.70;99.90;;;;;;7277643;32;20190;-54
2023/03/25 04:01:45;;;;;;;5.65;1.02;;;8.70;99.90;;;;;;7279948;32;20515;-55
2023/03/25 04:06:05;;;;;;;4.37;0.77;;;8.70;99.90;;;;;;7286081;32;20153;-54
2023/03/25 04:10:17;;;;;;;4.10;1.20;;;8.80;99.90;;;;;;7263593;32;20221;-54
2023/03/25 04:14:20;;;;;;;5.70;1.10;;;8.80;99.90;;;;;;7278806;32;20118;-54
2023/03/25 04:18:22;;;;;;;6.30;1.10;;;8.80;99.90;;;;;;7276760;32;20108;-54
2023/03/25 04:22:24;;;;;;;4.90;0.93;;;8.80;99.90;;;;;;7274030;32;20136;-54
2023/03/25 04:26:28;;;;;;;4.40;1.17;;;8.70;99.90;;;;;;7277694;32;20254;-54
2023/03/25 04:30:30;;;;;;;7.03;0.82;;;8.70;99.90;;;;;;7281382;32;20687;-54
2023/03/25 04:34:31;;;;;;;8.07;0.95;;;8.70;99.90;;;;;;7278792;32;20642;-55
2023/03/25 04:38:33;;;;;;;5.43;0.90;;;8.70;99.90;;;;;;7274356;32;20126;-54
2023/03/25 04:42:36;;;;;;;7.68;0.95;;;8.70;99.90;;;;;;7278005;32;20463;-54
2023/03/25 04:46:38;;;;;;;8.13;1.02;;;8.80;99.90;;;;;;7277358;32;20159;-55
2023/03/25 04:50:39;;;;;;;2.08;0.70;;;8.80;99.90;;;;;;7272156;32;20128;-54
2023/03/25 04:54:41;;;;;;;8.25;0.82;;;8.70;99.90;;;;;;7276348;32;20367;-54
2023/03/25 04:58:44;;;;;;;7.47;0.95;;;8.80;99.90;;;;;;7286501;32;20767;-55
2023/03/25 05:02:48;;;;;;;4.05;0.85;;;8.80;99.90;;;;;;7283435;32;20204;-55
2023/03/25 05:06:50;;;;;;;5.05;1.12;;;8.80;99.90;;;;;;7273860;32;20100;-55
2023/03/25 05:10:51;;;;;;;9.60;1.02;;;8.80;99.90;;;;;;7280312;32;20499;-55
2023/03/25 05:14:53;;;;;;;5.53;0.90;;;8.80;99.90;;;;;;7285473;32;20156;-55
2023/03/25 05:18:55;;;;;;;6.20;1.02;;;8.80;99.90;;;;;;7284154;32;20122;-55
2023/03/25 05:22:57;;;;;;;7.80;0.98;;;8.60;99.90;;;;;;7275461;32;20251;-56
2023/03/25 05:27:01;;;;;;;7.97;0.80;;;8.50;99.90;;;;;;7272469;32;20242;-55
2023/03/25 05:31:07;;;;;;;8.43;1.00;;;8.50;99.90;;;;;;7273201;32;20179;-55
2023/03/25 05:35:09;;;;;;;7.95;0.80;;;8.50;99.90;;;;;;7274607;32;20179;-55
2023/03/25 05:39:11;;;;;;;5.32;0.73;;;8.60;99.90;;;;;;7275871;32;20115;-55
2023/03/25 05:43:15;;;;;;;9.18;0.90;;;8.60;99.90;;;;;;7281782;32;20104;-55
2023/03/25 05:47:22;;;;;;;7.15;0.95;;;8.60;99.90;;;;;;7282735;32;20112;-55
2023/03/25 05:51:25;;;;;;;;;;;8.60;99.90;;;;;;7276953;32;20099;-55
2023/03/25 05:55:27;;;;;;;5.60;0.90;;;8.70;99.90;;;;;;7277231;32;20150;-55
2023/03/25 05:59:29;;;;;;;4.47;1.12;;;8.60;99.90;;;;;;7281217;32;20178;-54
2023/03/25 06:03:33;;;;;;;4.75;0.82;;;8.70;99.90;;;;;;7275794;32;20101;-55
2023/03/25 06:07:36;;;;;;;3.92;0.98;;;8.70;99.90;;;;;;7286312;32;20138;-55
2023/03/25 06:11:38;;;;;;;2.90;0.88;;;8.80;99.90;;;;;;7278186;32;20139;-55
2023/03/25 06:15:40;;;;;;;6.05;0.80;;;8.80;99.90;;;;;;7287178;32;20239;-55
2023/03/25 06:19:42;;;;;;;6.28;0.98;;;8.80;99.90;;;;;;7276849;32;20203;-55
2023/03/25 06:23:44;;;;;;;5.45;0.75;;;8.80;99.90;;;;;;7271980;32;20121;-55
2023/03/25 06:27:48;;;;;;;9.98;1.70;;;8.80;99.90;;;;;;7285824;32;20388;-55
2023/03/25 06:31:50;;;;;;;9.25;1.12;;;8.70;99.90;;;;;;7276361;32;20135;-54
2023/03/25 06:35:52;;;;;;;9.35;1.30;;;8.70;99.90;;;;;;7287158;32;20254;-55
2023/03/25 06:39:55;;;;;;;7.50;0.98;;;8.70;99.90;;;;;;7283818;32;20150;-54
2023/03/25 06:43:57;;;;;;;8.57;1.33;;;8.40;99.90;;;;;;7279223;32;20131;-56
2023/03/25 06:47:59;;;;;;;7.12;1.23;;;8.30;99.90;;;;;;7279608;32;20232;-55
2023/03/25 06:52:01;;;;;;;8.77;1.62;;;8.20;99.90;;;;;;7276446;32;20702;-54
2023/03/25 06:56:03;;;;;;;9.20;2.00;;;8.10;99.90;;;;;;7273332;32;20226;-54
2023/03/25 07:00:06;;;;;;;9.02;1.52;;;8.00;99.90;;;;;;7280594;32;20206;-55
2023/03/25 07:04:07;;;;;;;9.05;1.40;;;8.10;99.90;;;;;;7274760;32;20166;-54
2023/03/25 07:08:09;;;;;;;9.70;1.30;;;8.10;99.90;;;;;;7277003;32;20251;-55
2023/03/25 07:12:11;;;;;;;6.90;1.52;;;8.10;99.90;;;;;;7284638;32;20146;-55
2023/03/25 07:16:13;;;;;;;11.85;1.70;;;8.10;99.90;;;;;;7274954;32;20244;-54
2023/03/25 07:20:15;;;;;;;6.82;1.33;;;8.20;99.90;;;;;;7278316;32;20510;-54
2023/03/25 07:24:17;;;;;;;9.25;1.70;;;8.30;99.90;;;;;;7278364;32;20127;-55
2023/03/25 07:28:19;;;;;;;9.52;1.15;;;8.50;99.90;;;;;;7280332;32;20517;-55
2023/03/25 07:32:21;;;;;;;6.97;1.40;;;8.60;99.90;;;;;;7283498;32;20111;-56
2023/03/25 07:36:24;;;;;;;7.70;1.55;;;8.70;99.90;;;;;;7267039;32;20569;-57
2023/03/25 07:40:25;;;;;;;8.13;1.20;;;8.70;99.90;;;;;;7283163;32;20110;-57
2023/03/25 07:44:27;;;;;;;6.87;1.08;;;8.70;99.90;;;;;;7280831;32;20213;-57
2023/03/25 07:48:29;;;;;;;9.90;1.27;;;8.60;99.90;;;;;;7276176;32;20177;-56
2023/03/25 07:52:30;;;;;;;7.45;1.17;;;8.60;99.90;;;;;;7277446;32;20593;-56
2023/03/25 07:56:33;;;;;;;6.68;1.23;;;8.70;99.90;;;;;;7275548;32;20100;-55
2023/03/25 08:00:34;;;;;;;9.20;1.77;;;8.70;99.90;;;;;;7275782;32;20324;-56
2023/03/25 08:04:36;;;;;;;8.23;1.30;;;8.70;99.90;;;;;;7276040;32;20107;-56
2023/03/25 08:08:38;;;;;;;9.18;1.37;;;8.80;99.90;;;;;;7275406;32;20397;-55
2023/03/25 08:12:40;;;;;;;10.30;1.73;;;8.70;99.90;;;;;;7276759;32;20121;-56
2023/03/25 08:16:42;;;;;;;9.18;1.20;;;8.70;99.90;;;;;;7279481;32;20304;-56
2023/03/25 08:20:43;;;;;;;8.30;1.67;;;8.90;99.90;;;;;;7277835;32;20104;-56
2023/03/25 08:24:46;;;;;;;6.40;2.00;;;9.10;99.90;;;;;;7277099;32;20126;-56
2023/03/25 08:28:48;;;;;;;7.12;1.77;;;9.50;99.90;;;;;;7278055;32;20199;-56
2023/03/25 08:32:53;;;;;;;9.13;1.40;;;9.90;99.90;;;;;;7277270;32;20131;-56
2023/03/25 08:36:55;;;;;;;9.18;1.60;;;10.00;99.90;;;;;;7276925;32;20276;-56
2023/03/25 08:40:57;;;;;;;12.52;2.30;;;10.00;99.90;;;;;;7276847;32;20100;-56
2023/03/25 08:44:59;;;;;;;13.40;1.60;;;10.00;99.90;;;;;;7275637;32;20208;-56
2023/03/25 08:49:02;;;;;;;8.02;1.27;;;10.00;99.90;;;;;;7275005;32;20158;-55
2023/03/25 08:53:04;;;;;;;11.55;1.70;;;9.80;99.90;;;;;;7275093;32;20125;-62
2023/03/25 08:57:06;;;;;;;8.52;1.50;;;9.90;99.90;;;;;;7271921;32;20132;-62
2023/03/25 09:01:08;;;;;;;10.48;1.62;;;10.00;99.90;;;;;;7272716;32;20225;-56
2023/03/25 09:05:11;;;;;;;13.80;1.80;;;10.20;99.90;;;;;;7269188;32;20578;-56
2023/03/25 09:09:13;;;;;;;10.05;1.70;;;10.20;99.90;;;;;;7276322;32;20673;-56
2023/03/25 09:13:15;;;;;;;7.68;1.40;;;10.20;99.90;;;;;;7275952;32;20641;-56
2023/03/25 09:17:17;;;;;;;13.32;2.12;;;10.20;99.90;;;;;;7277606;32;20187;-56
2023/03/25 09:21:18;;;;;;;9.93;2.30;;;10.20;99.90;;;;;;7281957;32;20502;-56
2023/03/25 09:25:21;;;;;;;7.30;1.40;;;10.20;99.90;;;;;;7282011;32;20126;-56
2023/03/25 09:29:22;;;;;;;9.82;1.67;;;10.20;99.90;;;;;;7280157;32;20124;-56
2023/03/25 09:33:26;;;;;;;11.00;1.98;;;10.20;99.90;;;;;;7279761;32;20581;-56
2023/03/25 09:37:27;;;;;;;11.68;1.70;;;10.30;99.90;;;;;;7285880;32;20202;-56
2023/03/25 09:41:53;;;;;;;9.68;2.10;;;10.30;99.90;;;;;;7281693;32;20166;-56
2023/03/25 09:45:56;;;;;;;12.20;2.28;;;10.30;99.90;;;;;;7276225;32;20128;-55
2023/03/25 09:50:01;;;;;;;14.52;1.80;;;10.30;99.90;;;;;;7285059;32;20224;-55
2023/03/25 09:54:16;;;;;;;9.43;1.67;;;10.40;99.90;;;;;;7275331;32;20257;-55
2023/03/25 09:58:23;;;;;;;13.65;2.28;;;10.40;99.90;;;;;;7278438;32;20220;-56
2023/03/25 10:02:34;;;;;;;;;;;10.40;99.90;;;;;;7278772;32;20176;-55
2023/03/25 10:07:14;;;;;;;10.43;1.90;;;10.60;99.90;;;;;;7275817;32;20022;-55
2023/03/25 10:11:49;;;;;;;10.32;1.95;;;10.40;99.90;;;;;;7283796;32;20104;-55
2023/03/25 10:16:09;;;;;;;8.52;1.55;;;10.50;99.90;;;;;;7276060;32;20100;-56
2023/03/25 10:20:42;;;;;;;10.50;1.85;;;10.50;99.90;;;;;;7276698;32;20571;-56
2023/03/25 10:24:49;;;;;;;10.23;1.37;;;10.70;99.90;;;;;;7234433;32;20162;-56
2023/03/25 10:29:00;;;;;;;11.20;1.67;;;10.90;99.90;;;;;;7276197;32;20108;-56
2023/03/25 10:33:07;;;;;;;9.43;1.75;;;10.70;99.90;;;;;;7278123;32;20271;-56
2023/03/25 10:37:14;;;;;;;7.50;1.43;;;10.60;99.90;;;;;;7278584;32;20142;-55
2023/03/25 10:41:24;;;;;;;9.52;1.80;;;10.80;99.90;;;;;;7280553;32;20100;-56
2023/03/25 10:45:27;;;;;;;11.88;1.95;;;10.80;99.90;;;;;;7281744;32;20166;-56
2023/03/25 10:49:30;;;;;;;7.57;1.30;;;10.70;99.90;;;;;;7280009;32;20536;-59
2023/03/25 10:53:32;;;;;;;8.07;1.33;;;10.70;99.90;;;;;;7274830;32;20227;-59
2023/03/25 10:57:34;;;;;;;8.20;1.55;;;11.10;99.90;;;;;;7276214;32;20126;-59
2023/03/25 11:01:39;;;;;;;10.68;1.62;;;11.00;99.90;;;;;;7276112;32;20131;-60
2023/03/25 11:05:41;;;;;;;14.15;1.77;;;10.80;99.90;;;;;;7286903;32;20112;-60
2023/03/25 11:09:42;;;;;;;12.35;1.95;;;10.50;99.90;;;;;;7279322;32;20100;-56
2023/03/25 11:13:45;;;;;;;12.82;1.92;;;10.30;99.90;;;;;;7288113;32;20150;-56
2023/03/25 11:17:54;;;;;;;9.20;1.67;;;10.40;99.90;;;;;;7280371;32;20100;-56
2023/03/25 11:22:01;;;;;;;9.63;1.87;;;10.40;99.90;;;;;;7290037;32;20679;-55
2023/03/25 11:26:23;;;;;;;11.85;1.90;;;10.30;99.90;;;;;;7287847;32;20146;-55
2023/03/25 11:30:25;;;;;;;11.18;1.90;;;10.20;99.90;;;;;;7284783;32;20308;-56
2023/03/25 11:34:29;;;;;;;11.30;2.00;;;10.00;99.90;;;;;;7281710;32;20104;-55
2023/03/25 11:38:34;;;;;;;13.65;2.25;;;9.90;99.90;;;;;;7280109;32;20185;-58
2023/03/25 11:42:41;;;;;;;15.20;2.25;;;9.70;99.90;;;;;;7283072;32;20134;-55
2023/03/25 11:46:45;;;;;;;14.90;5.03;;;9.60;99.90;;;;;;7287182;32;20506;-56
2023/03/25 11:50:53;;;;;;;11.68;1.98;;;10.50;99.90;;;;;;7285160;32;20165;-56
2023/03/25 11:54:55;;;;;;;11.00;2.45;;;12.10;99.90;;;;;;7285495;32;20579;-56
2023/03/25 11:59:00;;;;;;;9.60;1.52;;;12.20;99.90;;;;;;7291843;32;20187;-55
2023/03/25 12:03:05;;;;;;;9.48;1.70;;;11.40;99.90;;;;;;7285918;32;20307;-55
2023/03/25 12:07:09;;;;;;;9.45;1.27;;;10.50;99.90;;;;;;7280060;32;20941;-55
2023/03/25 12:11:15;;;;;;;9.65;1.33;;;10.10;99.90;;;;;;7277718;32;20183;-55
2023/03/25 12:15:36;;;;;;;6.60;1.15;;;10.00;99.90;;;;;;7275837;32;20092;-56
2023/03/25 12:20:12;;;;;;;6.57;1.27;;;10.00;99.90;;;;;;7274146;32;20108;-55
2023/03/25 12:24:48;;;;;;;11.27;1.62;;;10.20;99.90;;;;;;7276287;32;20877;-57
2023/03/25 12:29:05;;;;;;;8.57;1.95;;;11.10;99.90;;;;;;7272361;32;20100;-64
2023/03/25 12:33:13;;;;;;;6.35;1.17;;;12.50;99.90;;;;;;7274056;32;20101;-64
2023/03/25 12:37:59;;;;;;;10.50;1.70;;;14.00;99.90;;;;;;7282839;32;20689;-65
2023/03/25 12:42:15;;;;;;;6.70;1.30;;;13.10;99.90;;;;;;7277630;32;20099;-56
2023/03/25 12:46:39;;;;;;;13.90;1.73;;;13.30;99.90;;;;;;7271591;32;20119;-56
2023/03/25 12:51:15;;;;;;;9.85;1.60;;;14.10;99.90;;;;;;7270533;32;20461;-55
2023/03/25 12:55:33;;;;;;;9.57;1.75;;;14.90;99.90;;;;;;7273300;32;20471;-56
2023/03/25 12:59:53;;;;;;;11.18;2.12;;;15.90;99.90;;;;;;7273962;32;20101;-56
2023/03/25 13:04:27;;;;;;;15.68;2.65;;;16.30;99.90;;;;;;7270147;32;20128;-55
2023/03/25 13:08:31;;;;;;;11.50;2.00;;;15.00;99.90;;;;;;7246003;32;20297;-57
2023/03/25 13:12:53;;;;;;;9.55;1.42;;;13.70;99.90;;;;;;7283658;32;20500;-57
2023/03/25 13:16:58;;;;;;;7.32;1.33;;;12.70;99.90;;;;;;7283326;32;20183;-56
2023/03/25 13:21:05;;;;;;;10.70;1.73;;;11.70;99.90;;;;;;7276706;32;20100;-56
2023/03/25 13:25:23;;;;;;;8.27;1.40;;;10.90;99.90;;;;;;7281873;32;20487;-55
2023/03/25 13:29:42;;;;;;;8.77;1.73;;;10.50;99.90;;;;;;7283082;32;20235;-56
2023/03/25 13:33:52;;;;;;;6.30;1.33;;;10.30;99.90;;;;;;7276155;32;20112;-55
2023/03/25 13:38:00;;;;;;;10.82;1.65;;;9.90;99.90;;;;;;7286080;32;20188;-55
2023/03/25 13:42:05;;;;;;;;;;;9.60;99.90;;;;;;7268175;32;20424;-54
2023/03/25 13:46:20;;;;;;;12.05;1.62;;;9.60;99.90;;;;;;7279651;32;20018;-55
2023/03/25 13:50:27;;;;;;;4.57;1.00;;;9.60;99.90;;;;;;7281777;32;20119;-56
2023/03/25 13:54:43;;;;;;;5.93;1.02;;;9.70;99.90;;;;;;7276262;32;20802;-55
2023/03/25 13:59:05;;;;;;;5.07;0.98;;;9.80;99.90;;;;;;7282562;32;20104;-56
2023/03/25 14:03:10;;;;;;;3.60;0.90;;;11.50;99.90;;;;;;7285228;32;20454;-56
2023/03/25 14:07:44;;;;;;;3.53;0.70;;;13.50;99.90;;;;;;7284124;32;20621;-56
2023/03/25 14:12:14;;;;;;;4.43;0.70;;;13.30;99.90;;;;;;7280341;32;20202;-56
2023/03/25 14:16:21;;;;;;;4.45;0.85;;;12.30;99.90;;;;;;7284083;32;20554;-55
2023/03/25 14:20:28;;;;;;;3.70;0.90;;;11.40;99.90;;;;;;7282395;32;20127;-56
2023/03/25 14:24:35;;;;;;;4.60;1.17;;;10.90;99.90;;;;;;7281463;32;20205;-56
2023/03/25 14:28:43;;;;;;;3.25;0.80;;;10.50;99.90;;;;;;7276349;32;20124;-56
2023/03/25 14:32:45;;;;;;;5.62;1.05;;;10.20;99.90;;;;;;7276914;32;20317;-56
2023/03/25 14:36:48;;;;;;;9.52;1.25;;;10.00;99.90;;;;;;7274873;32;20608;-55
2023/03/25 14:40:51;;;;;;;9.23;1.40;;;9.70;99.90;;;;;;7273966;32;20527;-55
2023/03/25 14:45:31;;;;;;;7.20;1.45;;;9.70;99.90;;;;;;7281951;32;20096;-55
2023/03/25 14:49:59;;;;;;;5.07;1.30;;;9.60;99.90;;;;;;7279268;32;20522;-56
2023/03/25 14:54:10;;;;;;;9.27;1.50;;;9.60;99.90;;;;;;7272865;32;20597;-55
2023/03/25 14:58:26;;;;;;;8.68;1.48;;;9.50;99.90;;;;;;7276542;32;20651;-56
2023/03/25 15:02:31;;;;;;;8.57;1.23;;;9.60;99.90;;;;;;7283410;32;20124;-55
2023/03/25 15:06:34;;;;;;;6.85;1.20;;;9.60;99.90;;;;;;7282927;32;20115;-56
2023/03/25 15:10:41;;;;;;;4.80;0.90;;;9.60;99.90;;;;;;7258901;32;20110;-56
2023/03/25 15:14:42;;;;;;;10.05;1.48;;;9.50;99.90;;;;;;7261506;32;20100;-56
2023/03/25 15:18:45;;;;;;;8.40;1.10;;;9.40;99.90;;;;;;7278336;32;20182;-56
2023/03/25 15:23:26;;;;;;;5.95;0.75;;;8.70;99.90;;;;;;7273116;32;20181;-56
2023/03/25 15:27:50;;;;;;;2.97;0.75;;;8.20;99.90;;;;;;7278280;32;20155;-56
2023/03/25 15:32:07;;;;;;;6.05;0.88;;;8.30;99.90;;;;;;7275427;32;20127;-56
2023/03/25 15:36:26;;;;;;;4.97;1.00;;;8.60;99.90;;;;;;7282208;32;20673;-57
2023/03/25 15:40:49;;;;;;;6.45;2.08;;;8.50;99.90;;;;;;7284477;32;20298;-56
2023/03/25 15:45:05;;;;;;;5.28;1.40;;;8.70;99.90;;;;;;7279209;32;20212;-56
2023/03/25 15:49:39;;;;;;;8.45;1.48;;;8.80;99.90;;;;;;7278471;32;20122;-56
2023/03/25 15:54:09;;;;;;;6.12;1.30;;;8.90;99.90;;;;;;7219231;32;20122;-57
2023/03/25 15:58:20;;;;;;;8.60;1.30;;;9.00;99.90;;;;;;7277254;32;20161;-56
2023/03/25 16:02:31;;;;;;;5.15;1.37;;;9.10;99.90;;;;;;7277554;32;20490;-55
2023/03/25 16:06:40;;;;;;;5.47;1.45;;;9.10;99.90;;;;;;7275228;32;20214;-56
2023/03/25 16:10:45;;;;;;;8.70;1.37;;;9.10;99.90;;;;;;7275637;32;20358;-55
2023/03/25 16:14:48;;;;;;;8.48;1.30;;;9.10;99.90;;;;;;7279147;32;20637;-56
2023/03/25 16:18:49;;;;;;;7.82;1.20;;;9.20;99.90;;;;;;7280635;32;20187;-56
2023/03/25 16:22:54;;;;;;;6.57;1.42;;;9.30;99.90;;;;;;7278386;32;20258;-56
2023/03/25 16:26:56;;;;;;;9.63;1.55;;;9.20;99.90;;;;;;7284915;32;20105;-56
2023/03/25 16:30:58;;;;;;;9.02;1.25;;;9.30;99.90;;;;;;7276912;32;20187;-56
2023/03/25 16:35:00;;;;;;;5.18;1.20;;;9.40;99.90;;;;;;7274065;32;20268;-56
2023/03/25 16:39:04;;;;;;;10.35;1.25;;;9.40;99.90;;;;;;7274769;32;20206;-56
2023/03/25 16:43:17;;;;;;;7.05;1.60;;;9.40;99.90;;;;;;7277202;32;20244;-55
2023/03/25 16:47:21;;;;;;;7.87;1.50;;;9.50;99.90;;;;;;7282793;32;20257;-56
2023/03/25 16:51:28;;;;;;;8.30;1.80;;;9.50;99.90;;;;;;7274743;32;20096;-56
2023/03/25 16:55:40;;;;;;;8.45;1.95;;;9.40;99.90;;;;;;7273595;32;20245;-55
2023/03/25 16:59:45;;;;;;;14.50;1.98;;;9.30;99.90;;;;;;7273461;32;20282;-56
2023/03/25 17:03:48;;;;;;;8.95;1.60;;;9.40;99.90;;;;;;7274780;32;20124;-56
2023/03/25 17:08:05;;;;;;;8.65;1.37;;;9.40;99.90;;;;;;7278985;32;20528;-55
2023/03/25 17:12:14;;;;;;;5.35;1.00;;;9.20;99.90;;;;;;7279234;32;20257;-55
2023/03/25 17:16:17;;;;;;;7.87;1.12;;;9.10;99.90;;;;;;7278118;32;20267;-56
2023/03/25 17:20:33;;;;;;;6.22;1.65;;;9.10;99.90;;;;;;7281411;32;20124;-55
2023/03/25 17:24:41;;;;;;;7.37;1.05;;;9.10;99.90;;;;;;7278965;32;20498;-55
2023/03/25 17:28:57;;;;;;;2.83;0.98;;;9.20;99.90;;;;;;7277660;32;20126;-56
2023/03/25 17:33:14;;;;;;;6.32;1.08;;;9.20;99.90;;;;;;7280427;32;20092;-56
2023/03/25 17:37:16;;;;;;;7.32;1.37;;;9.10;99.90;;;;;;7275517;32;20132;-55
2023/03/25 17:41:18;;;;;;;5.40;1.17;;;9.10;99.90;;;;;;7285596;32;20100;-56
2023/03/25 17:45:22;;;;;;;6.37;1.90;;;9.00;99.90;;;;;;7285452;32;20204;-55
2023/03/25 17:49:24;;;;;;;5.78;1.65;;;9.10;99.90;;;;;;7284990;32;20570;-56
2023/03/25 17:53:27;;;;;;;5.12;1.20;;;9.10;99.90;;;;;;7290927;32;20201;-55
2023/03/25 17:57:28;;;;;;;8.45;1.30;;;9.00;99.90;;;;;;7285557;32;21107;-55
2023/03/25 18:01:31;;;;;;;4.35;1.45;;;9.00;99.90;;;;;;7287964;32;20192;-56
2023/03/25 18:05:33;;;;;;;5.12;1.40;;;9.00;99.90;;;;;;7283210;32;20201;-57
2023/03/25 18:09:35;;;;;;;6.62;1.17;;;8.90;99.90;;;;;;7283014;32;20800;-56
2023/03/25 18:13:37;;;;;;;3.55;1.30;;;8.90;99.90;;;;;;7284815;32;20109;-56
2023/03/25 18:17:39;;;;;;;6.50;1.12;;;9.00;99.90;;;;;;7279571;32;20108;-56
2023/03/25 18:21:41;;;;;;;4.05;1.15;;;8.90;99.90;;;;;;7290238;32;20471;-56
2023/03/25 18:25:46;;;;;;;8.07;1.62;;;9.00;99.90;;;;;;7282275;32;20092;-55
2023/03/25 18:29:48;;;;;;;10.13;2.33;;;9.00;99.90;;;;;;7287224;32;20131;-56
2023/03/25 18:33:50;;;;;;;6.53;1.77;;;9.00;99.90;;;;;;7283657;32;20199;-56
2023/03/25 18:37:52;;;;;;;12.80;2.35;;;9.10;99.90;;;;;;7293186;32;21282;-55
2023/03/25 18:41:53;;;;;;;11.40;2.03;;;9.10;99.90;;;;;;7279706;32;20186;-57
2023/03/25 18:45:55;;;;;;;8.45;1.67;;;9.00;99.90;;;;;;7282321;32;20278;-56
2023/03/25 18:49:57;;;;;;;7.80;1.92;;;9.00;99.90;;;;;;7287506;32;20559;-56
2023/03/25 18:53:59;;;;;;;6.97;1.70;;;9.10;99.90;;;;;;7286478;32;20739;-56
2023/03/25 18:58:00;;;;;;;9.38;1.85;;;9.10;99.90;;;;;;7290896;32;20293;-56
2023/03/25 19:02:02;;;;;;;9.43;2.10;;;9.10;99.90;;;;;;7285751;32;20136;-56
2023/03/25 19:06:06;;;;;;;9.52;1.90;;;9.10;99.90;;;;;;7287547;32;20138;-56
2023/03/25 19:10:15;;;;;;;6.57;1.60;;;9.20;99.90;;;;;;7280854;32;20100;-56
2023/03/25 19:14:17;;;;;;;7.85;1.15;;;9.10;99.90;;;;;;7274294;32;20193;-56
2023/03/25 19:18:25;;;;;;;9.70;1.70;;;9.10;99.90;;;;;;7277774;32;20486;-61
2023/03/25 19:22:28;;;;;;;7.72;1.35;;;9.20;99.90;;;;;;7271813;32;20739;-61
2023/03/25 19:26:30;;;;;;;10.38;1.92;;;9.30;99.90;;;;;;7271468;32;20663;-56
2023/03/25 19:30:32;;;;;;;8.85;1.73;;;9.30;99.90;;;;;;7269864;32;20108;-56
2023/03/25 19:34:33;;;;;;;10.15;1.77;;;9.20;99.90;;;;;;7273323;32;20093;-56
2023/03/25 19:38:35;;;;;;;9.15;2.40;;;9.00;99.90;;;;;;7271290;32;20277;-56
2023/03/25 19:42:38;;;;;;;11.77;2.35;;;8.90;99.90;;;;;;7282839;32;20173;-56
2023/03/25 19:46:39;;;;;;;12.07;2.05;;;8.80;99.90;;;;;;7271233;32;20146;-56
2023/03/25 19:50:41;;;;;;;8.07;1.92;;;8.80;99.90;;;;;;7279174;32;20108;-55
2023/03/25 19:54:43;;;;;;;16.92;2.37;;;8.90;99.90;;;;;;7271166;32;20239;-57
2023/03/25 19:58:45;;;;;;;9.75;2.60;;;8.80;99.90;;;;;;7268285;32;20701;-56
2023/03/25 20:02:52;;;;;;;13.62;2.67;;;8.90;99.90;;;;;;7278929;32;20223;-56
2023/03/25 20:06:53;;;;;;;14.03;2.63;;;9.00;99.90;;;;;;7271869;32;20614;-56
2023/03/25 20:10:55;;;;;;;13.13;2.45;;;9.00;99.90;;;;;;7277898;32;20685;-56
2023/03/25 20:14:57;;;;;;;12.35;2.65;;;9.10;99.90;;;;;;7272813;32;20132;-56
2023/03/25 20:18:59;;;;;;;19.58;3.47;;;9.10;99.90;;;;;;7270943;32;20538;-56
2023/03/25 20:23:00;;;;;;;16.58;3.10;;;9.20;99.90;;;;;;7274908;32;20182;-55
2023/03/25 20:27:02;;;;;;;13.73;2.78;;;8.90;99.90;;;;;;7279753;32;20487;-56
2023/03/25 20:31:19;;;;;;;16.55;2.65;;;8.70;99.90;;;;;;7272754;32;20310;-55
2023/03/25 20:35:21;;;;;;;14.35;2.92;;;8.40;99.90;;;;;;7275424;32;20214;-56
2023/03/25 20:39:23;;;;;;;9.38;2.60;;;8.20;99.90;;;;;;7274124;32;20733;-57
2023/03/25 20:43:25;;;;;;;8.45;1.90;;;8.30;99.90;;;;;;7281659;32;20155;-56
2023/03/25 20:47:27;;;;;;;8.93;1.75;;;8.10;99.90;;;;;;7266945;32;20711;-57
2023/03/25 20:51:29;;;;;;;13.10;2.42;;;8.10;99.90;;;;;;7275045;32;20166;-56
2023/03/25 20:55:31;;;;;;;10.13;2.20;;;8.00;99.90;;;;;;7272394;32;20168;-56
2023/03/25 20:59:32;;;;;;;7.47;1.87;;;8.00;99.90;;;;;;7280299;32;20219;-55
2023/03/25 21:03:34;;;;;;;9.40;2.37;;;8.00;99.90;;;;;;7272976;32;20122;-56
2023/03/25 21:07:36;;;;;;;9.95;2.00;;;7.80;99.90;;;;;;7286063;32;20253;-56
2023/03/25 21:11:38;;;;;;;10.43;2.20;;;7.90;99.90;;;;;;7280251;32;20211;-56
2023/03/25 21:15:40;;;;;;;9.07;2.00;;;7.70;99.90;;;;;;7284481;32;20245;-55
2023/03/25 21:19:42;;;;;;;7.25;1.77;;;7.80;99.90;;;;;;7284863;32;20123;-56
2023/03/25 21:23:44;;;;;;;10.98;2.40;;;7.90;99.90;;;;;;7271774;32;20150;-56
2023/03/25 21:27:45;;;;;;;4.12;0.85;;;7.80;99.90;;;;;;7283031;32;20122;-54
2023/03/25 21:31:47;;;;;;;5.78;0.80;;;7.60;99.90;;;;;;7282860;32;20186;-55
2023/03/25 21:35:51;;;;;;;3.95;0.70;;;7.30;99.90;;;;;;7284036;32;20708;-55